createdAt,value
2019-04-10T00:00:39.361Z,16.30
2019-04-10T00:03:25.881Z,16.30
2019-04-10T00:05:50.551Z,15.58
2019-04-10T00:08:26.145Z,15.15
2019-04-10T00:11:00.987Z,15.93
2019-04-10T00:13:36.485Z,15.90
2019-04-10T00:16:11.990Z,15.88
2019-04-10T00:18:46.677Z,15.43
2019-04-10T00:21:21.351Z,16.85
2019-04-10T00:23:56.106Z,15.63
2019-04-10T00:26:31.702Z,15.65
2019-04-10T00:29:07.753Z,15.50
2019-04-10T00:31:42.704Z,15.50
2019-04-10T00:34:17.760Z,15.00
2019-04-10T00:36:53.356Z,14.15
2019-04-10T00:39:28.711Z,13.38
2019-04-10T00:42:03.569Z,15.05
2019-04-10T00:44:37.791Z,13.70
2019-04-10T00:47:12.874Z,15.95
2019-04-10T00:49:48.212Z,14.90
2019-04-10T00:52:24.188Z,17.02
2019-04-10T00:54:59.426Z,16.00
2019-04-10T00:57:34.287Z,16.57
2019-04-10T01:00:09.250Z,15.78
2019-04-10T01:02:44.788Z,16.70
2019-04-10T01:05:19.823Z,15.68
2019-04-10T01:07:54.641Z,16.37
2019-04-10T01:10:30.384Z,16.00
2019-04-10T01:13:05.296Z,16.55
2019-04-10T01:15:40.047Z,16.17
2019-04-10T01:18:15.073Z,15.80
2019-04-10T01:20:50.163Z,16.05
2019-04-10T01:23:25.002Z,15.03
2019-04-10T01:25:59.700Z,15.65
2019-04-10T01:28:34.518Z,16.77
2019-04-10T01:31:09.218Z,15.28
2019-04-10T01:33:46.103Z,14.85
2019-04-10T01:36:22.789Z,15.48
2019-04-10T01:38:57.882Z,15.70
2019-04-10T01:41:32.845Z,15.13
2019-04-10T01:44:07.697Z,15.32
2019-04-10T01:46:42.452Z,15.38
2019-04-10T01:49:17.658Z,15.20
2019-04-10T01:51:52.634Z,14.55
2019-04-10T01:54:27.365Z,16.32
2019-04-10T01:57:02.092Z,16.27
2019-04-10T01:59:38.354Z,14.87
2019-04-10T02:02:14.829Z,16.20
2019-04-10T02:04:52.131Z,15.65
2019-04-10T02:07:26.774Z,15.90
2019-04-10T02:10:01.742Z,15.90
2019-04-10T02:12:37.607Z,14.87
2019-04-10T02:15:15.590Z,16.27
2019-04-10T02:17:50.243Z,15.78
2019-04-10T02:20:25.058Z,15.58
2019-04-10T02:22:59.663Z,15.98
2019-04-10T02:25:36.931Z,15.30
2019-04-10T02:28:11.000Z,16.45
2019-04-10T02:30:46.089Z,15.88
2019-04-10T02:33:20.687Z,14.80
2019-04-10T02:35:57.001Z,14.80
2019-04-10T02:39:04.620Z,15.53
2019-04-10T02:41:28.022Z,15.53
2019-04-10T02:44:04.826Z,14.80
2019-04-10T02:46:41.269Z,15.50
2019-04-10T02:49:16.422Z,15.13
2019-04-10T02:51:51.938Z,15.43
2019-04-10T02:54:27.104Z,15.70
2019-04-10T02:57:03.494Z,15.90
2019-04-10T02:59:39.650Z,15.23
2019-04-10T03:02:16.188Z,16.20
2019-04-10T03:04:51.125Z,15.53
2019-04-10T03:07:26.228Z,15.32
2019-04-10T03:10:12.980Z,15.13
2019-04-10T03:12:38.731Z,15.68
2019-04-10T03:15:15.041Z,14.68
2019-04-10T03:17:50.447Z,14.47
2019-04-10T03:20:25.270Z,14.25
2019-04-10T03:23:00.918Z,13.83
2019-04-10T03:25:37.092Z,14.70
2019-04-10T03:28:11.948Z,14.45
2019-04-10T03:30:48.733Z,14.78
2019-04-10T03:33:29.677Z,14.18
2019-04-10T03:36:03.175Z,14.60
2019-04-10T03:38:49.418Z,13.98
2019-04-10T03:41:14.201Z,13.58
2019-04-10T03:43:48.869Z,15.13
2019-04-10T03:46:23.585Z,15.15
2019-04-10T03:48:58.290Z,15.63
2019-04-10T03:51:34.291Z,15.65
2019-04-10T03:54:09.114Z,15.90
2019-04-10T03:56:43.946Z,15.38
2019-04-10T03:59:20.182Z,15.05
2019-04-10T04:01:55.461Z,13.60
2019-04-10T04:04:31.240Z,14.75
2019-04-10T04:07:07.051Z,14.65
2019-04-10T04:09:41.946Z,15.90
2019-04-10T04:12:16.616Z,16.20
2019-04-10T04:14:51.340Z,15.08
2019-04-10T04:17:26.275Z,15.20
2019-04-10T04:20:02.421Z,14.55
2019-04-10T04:22:37.287Z,14.58
2019-04-10T04:25:12.860Z,15.00
2019-04-10T04:27:47.758Z,16.17
2019-04-10T04:30:22.565Z,15.53
2019-04-10T04:32:58.036Z,15.85
2019-04-10T04:35:32.925Z,15.35
2019-04-10T04:38:07.540Z,15.85
2019-04-10T04:40:42.346Z,16.15
2019-04-10T04:43:17.034Z,17.42
2019-04-10T04:45:52.075Z,16.02
2019-04-10T04:48:28.431Z,17.25
2019-04-10T04:51:03.825Z,17.23
2019-04-10T04:53:38.596Z,17.90
2019-04-10T04:56:13.259Z,16.07
2019-04-10T04:58:47.953Z,16.90
2019-04-10T05:01:24.249Z,16.85
2019-04-10T05:04:00.569Z,16.42
2019-04-10T05:06:35.221Z,17.23
2019-04-10T05:09:09.916Z,15.43
2019-04-10T05:11:44.826Z,16.05
2019-04-10T05:14:19.637Z,19.00
2019-04-10T05:16:55.376Z,17.87
2019-04-10T05:19:30.198Z,18.32
2019-04-10T05:22:05.902Z,15.32
2019-04-10T05:24:40.786Z,14.45
2019-04-10T05:27:16.079Z,14.93
2019-04-10T05:29:50.806Z,16.20
2019-04-10T05:32:25.579Z,16.35
2019-04-10T05:35:00.914Z,15.63
2019-04-10T05:37:36.539Z,17.35
2019-04-10T05:40:11.847Z,15.63
2019-04-10T05:42:49.456Z,16.50
2019-04-10T05:45:24.223Z,16.45
2019-04-10T05:47:59.057Z,16.77
2019-04-10T05:50:33.678Z,17.25
2019-04-10T05:53:08.476Z,15.98
2019-04-10T05:55:45.175Z,17.62
2019-04-10T05:58:20.116Z,17.40
2019-04-10T06:00:56.843Z,17.92
2019-04-10T06:03:32.360Z,17.10
2019-04-10T06:06:08.291Z,18.70
2019-04-10T06:08:43.566Z,17.23
2019-04-10T06:11:18.357Z,18.32
2019-04-10T06:13:53.015Z,20.05
2019-04-10T06:16:28.166Z,24.15
2019-04-10T06:19:03.936Z,25.25
2019-04-10T06:21:39.883Z,26.33
2019-04-10T06:24:14.814Z,26.33
2019-04-10T06:26:50.075Z,24.98
2019-04-10T06:29:24.954Z,22.85
2019-04-10T06:32:01.279Z,26.48
2019-04-10T06:34:36.409Z,24.77
2019-04-10T06:37:11.254Z,23.70
2019-04-10T06:39:46.489Z,23.35
2019-04-10T06:42:21.180Z,22.30
2019-04-10T06:44:56.430Z,21.90
2019-04-10T06:47:31.172Z,18.35
2019-04-10T06:50:07.524Z,16.70
2019-04-10T06:52:42.978Z,16.45
2019-04-10T06:55:18.578Z,17.45
2019-04-10T06:57:57.319Z,16.00
2019-04-10T07:00:30.683Z,16.40
2019-04-10T07:03:06.491Z,18.15
2019-04-10T07:05:53.168Z,17.12
2019-04-10T07:08:22.188Z,16.10
2019-04-10T07:11:02.017Z,16.07
2019-04-10T07:13:32.134Z,16.20
2019-04-10T07:16:08.464Z,14.98
2019-04-10T07:18:48.610Z,14.28
2019-04-10T07:21:20.233Z,14.10
2019-04-10T07:23:59.366Z,14.10
2019-04-10T07:26:39.432Z,15.05
2019-04-10T07:29:08.817Z,14.53
2019-04-10T07:31:44.673Z,14.60
2019-04-10T07:34:22.053Z,15.55
2019-04-10T07:36:56.122Z,15.72
2019-04-10T07:39:33.467Z,15.80
2019-04-10T07:42:07.322Z,16.23
2019-04-10T07:44:42.090Z,15.10
2019-04-10T07:47:17.438Z,16.73
2019-04-10T07:49:52.532Z,15.83
2019-04-10T07:52:27.579Z,14.85
2019-04-10T07:55:02.319Z,16.20
2019-04-10T07:57:38.689Z,18.65
2019-04-10T08:00:16.114Z,16.93
2019-04-10T08:02:51.133Z,15.68
2019-04-10T08:05:27.719Z,15.60
2019-04-10T08:08:03.042Z,15.28
2019-04-10T08:10:37.806Z,16.17
2019-04-10T08:13:12.540Z,15.72
2019-04-10T08:15:47.172Z,15.18
2019-04-10T08:18:23.175Z,15.15
2019-04-10T08:20:59.291Z,14.25
2019-04-10T08:23:34.098Z,14.93
2019-04-10T08:26:08.933Z,14.23
2019-04-10T08:28:43.602Z,14.45
2019-04-10T08:31:19.039Z,13.30
2019-04-10T08:33:54.723Z,14.38
2019-04-10T08:36:29.719Z,13.18
2019-04-10T08:39:06.808Z,12.88
2019-04-10T08:41:44.439Z,14.38
2019-04-10T08:44:19.983Z,14.15
2019-04-10T08:46:54.743Z,18.15
2019-04-10T08:49:30.430Z,13.25
2019-04-10T08:52:06.118Z,13.65
2019-04-10T08:54:40.915Z,14.45
2019-04-10T08:57:15.671Z,13.70
2019-04-10T08:59:50.412Z,14.25
2019-04-10T09:02:26.179Z,14.40
2019-04-10T09:05:01.488Z,14.35
2019-04-10T09:07:36.471Z,13.65
2019-04-10T09:10:12.295Z,13.62
2019-04-10T09:12:47.273Z,13.80
2019-04-10T09:15:22.106Z,13.50
2019-04-10T09:17:57.702Z,13.13
2019-04-10T09:20:33.567Z,13.72
2019-04-10T09:23:26.591Z,13.93
2019-04-10T09:25:47.360Z,13.40
2019-04-10T09:28:22.348Z,13.13
2019-04-10T09:30:57.390Z,13.58
2019-04-10T09:33:32.443Z,13.13
2019-04-10T09:36:07.283Z,12.90
2019-04-10T09:38:43.880Z,12.90
2019-04-10T09:41:20.160Z,13.15
2019-04-10T09:43:54.841Z,13.45
2019-04-10T09:46:29.642Z,13.10
2019-04-10T09:49:05.502Z,12.93
2019-04-10T09:51:40.717Z,13.32
2019-04-10T09:54:15.878Z,13.05
2019-04-10T09:56:51.285Z,13.13
2019-04-10T09:59:35.441Z,13.28
2019-04-10T10:02:03.966Z,12.93
2019-04-10T10:04:39.783Z,13.03
2019-04-10T10:07:15.102Z,14.45
2019-04-10T10:09:49.870Z,13.08
2019-04-10T10:12:25.620Z,12.82
2019-04-10T10:15:00.253Z,13.88
2019-04-10T10:17:35.019Z,13.55
2019-04-10T10:20:11.459Z,13.53
2019-04-10T10:22:47.206Z,13.18
2019-04-10T10:25:23.456Z,15.60
2019-04-10T10:27:58.587Z,13.90
2019-04-10T10:30:33.688Z,13.80
2019-04-10T10:33:09.734Z,13.35
2019-04-10T10:35:44.539Z,13.25
2019-04-10T10:38:19.342Z,12.78
2019-04-10T10:40:54.851Z,13.00
2019-04-10T10:43:29.773Z,12.18
2019-04-10T10:46:04.536Z,12.45
2019-04-10T10:48:39.986Z,12.88
2019-04-10T10:51:15.410Z,13.18
2019-04-10T10:53:50.074Z,12.80
2019-04-10T10:56:29.076Z,12.88
2019-04-10T10:59:05.606Z,12.53
2019-04-10T11:01:42.213Z,12.58
2019-04-10T11:04:21.739Z,12.03
2019-04-10T11:07:00.989Z,12.13
2019-04-10T11:09:37.054Z,13.20
2019-04-10T11:12:13.663Z,12.70
2019-04-10T11:14:49.991Z,12.35
2019-04-10T11:17:28.069Z,12.63
2019-04-10T11:20:08.099Z,11.30
2019-04-10T11:22:44.946Z,11.57
2019-04-10T11:25:20.219Z,12.25
2019-04-10T11:27:56.474Z,11.78
2019-04-10T11:30:50.836Z,11.53
2019-04-10T11:33:26.335Z,11.05
2019-04-10T11:36:02.054Z,10.53
2019-04-10T11:38:37.475Z,10.25
2019-04-10T11:41:14.820Z,10.72
2019-04-10T11:43:52.626Z,10.72
2019-04-10T11:46:30.997Z,10.80
2019-04-10T11:49:04.879Z,10.20
2019-04-10T11:51:39.925Z,10.50
2019-04-10T11:54:16.929Z,10.93
2019-04-10T11:56:55.017Z,10.80
2019-04-10T11:59:28.949Z,9.93
2019-04-10T12:02:06.472Z,10.38
2019-04-10T12:04:50.440Z,10.60
2019-04-10T12:12:29.960Z,10.75
2019-04-10T12:15:08.003Z,10.55
2019-04-10T12:17:44.371Z,10.30
2019-04-10T12:20:19.241Z,9.73
2019-04-10T12:22:56.611Z,10.48
2019-04-10T12:25:31.433Z,10.13
2019-04-10T12:28:06.415Z,10.95
2019-04-10T12:30:41.679Z,10.72
2019-04-10T12:33:19.569Z,10.32
2019-04-10T12:35:54.329Z,10.58
2019-04-10T12:38:29.823Z,10.85
2019-04-10T12:41:04.624Z,10.60
2019-04-10T12:43:39.684Z,10.03
2019-04-10T12:46:14.938Z,10.20
2019-04-10T12:48:50.689Z,10.25
2019-04-10T12:51:25.693Z,9.95
2019-04-10T12:54:01.140Z,9.93
2019-04-10T12:56:35.923Z,9.65
2019-04-10T12:59:11.139Z,9.83
2019-04-10T13:01:47.038Z,9.60
2019-04-10T13:04:22.352Z,10.05
2019-04-10T13:06:57.547Z,10.95
2019-04-10T13:09:32.231Z,10.43
2019-04-10T13:12:07.065Z,10.65
2019-04-10T13:14:41.728Z,10.65
2019-04-10T13:17:16.558Z,10.30
2019-04-10T13:19:51.460Z,10.13
2019-04-10T13:22:26.504Z,11.03
2019-04-10T13:25:01.835Z,11.08
2019-04-10T13:27:36.901Z,10.53
2019-04-10T13:30:14.651Z,11.48
2019-04-10T13:32:50.097Z,11.05
2019-04-10T13:35:24.892Z,10.68
2019-04-10T13:37:59.665Z,10.98
2019-04-10T13:40:35.255Z,11.35
2019-04-10T13:43:11.736Z,11.12
2019-04-10T13:45:46.649Z,11.55
2019-04-10T13:48:21.571Z,11.93
2019-04-10T13:50:57.109Z,11.30
2019-04-10T13:53:32.214Z,11.30
2019-04-10T13:56:07.113Z,11.60
2019-04-10T13:58:42.601Z,12.55
2019-04-10T14:01:19.625Z,11.33
2019-04-10T14:03:54.541Z,16.32
2019-04-10T14:06:29.686Z,24.70
2019-04-10T14:09:25.246Z,14.75
2019-04-10T14:11:43.961Z,11.75
2019-04-10T14:14:18.725Z,12.23
2019-04-10T14:16:53.529Z,11.63
2019-04-10T14:19:29.853Z,12.37
2019-04-10T14:22:05.241Z,12.07
2019-04-10T14:24:44.780Z,12.03
2019-04-10T14:27:18.323Z,12.98
2019-04-10T14:29:53.101Z,13.25
2019-04-10T14:32:35.620Z,12.00
2019-04-10T14:35:11.410Z,12.68
2019-04-10T14:37:46.490Z,12.43
2019-04-10T14:40:22.139Z,12.07
2019-04-10T14:42:57.698Z,12.30
2019-04-10T14:45:33.231Z,12.88
2019-04-10T14:48:08.209Z,11.80
2019-04-10T14:50:44.124Z,11.75
2019-04-10T14:53:19.309Z,12.13
2019-04-10T14:55:53.994Z,12.37
2019-04-10T14:58:30.651Z,11.28
2019-04-10T15:01:08.435Z,11.75
2019-04-10T15:03:42.682Z,11.53
2019-04-10T15:06:20.129Z,11.93
2019-04-10T15:08:54.199Z,12.63
2019-04-10T15:11:28.902Z,11.90
2019-04-10T15:14:03.810Z,12.65
2019-04-10T15:16:39.117Z,11.28
2019-04-10T15:19:13.834Z,11.70
2019-04-10T15:21:49.244Z,11.70
2019-04-10T15:24:23.901Z,11.97
2019-04-10T15:26:58.600Z,11.75
2019-04-10T15:29:33.388Z,12.10
2019-04-10T15:32:08.489Z,11.85
2019-04-10T15:34:43.781Z,11.60
2019-04-10T15:37:18.529Z,13.43
2019-04-10T15:39:53.963Z,12.90
2019-04-10T15:42:28.906Z,12.82
2019-04-10T15:45:07.276Z,12.88
2019-04-10T15:47:51.585Z,12.00
2019-04-10T15:50:19.512Z,12.95
2019-04-10T15:52:54.260Z,12.82
2019-04-10T15:55:29.955Z,13.80
2019-04-10T15:58:06.530Z,13.13
2019-04-10T16:00:41.464Z,13.83
2019-04-10T16:03:16.153Z,12.85
2019-04-10T16:05:50.945Z,14.18
2019-04-10T16:08:26.139Z,12.75
2019-04-10T16:11:05.626Z,13.38
2019-04-10T16:13:42.092Z,13.80
2019-04-10T16:16:40.314Z,13.40
2019-04-10T16:19:20.406Z,14.33
2019-04-10T16:21:56.329Z,15.48
2019-04-10T16:24:31.195Z,14.28
2019-04-10T16:27:07.650Z,13.32
2019-04-10T16:29:42.830Z,13.22
2019-04-10T16:32:18.831Z,19.27
2019-04-10T16:34:54.545Z,13.95
2019-04-10T16:37:31.379Z,17.32
2019-04-10T16:40:10.020Z,17.57
2019-04-10T16:42:44.186Z,14.38
2019-04-10T16:45:19.165Z,13.68
2019-04-10T16:47:54.551Z,13.72
2019-04-10T16:50:30.012Z,14.23
2019-04-10T16:53:05.481Z,15.25
2019-04-10T16:55:41.007Z,13.90
2019-04-10T16:58:16.023Z,13.15
2019-04-10T17:00:52.195Z,12.90
2019-04-10T17:03:29.403Z,12.60
2019-04-10T17:06:04.484Z,13.13
2019-04-10T17:08:40.459Z,11.88
2019-04-10T17:11:16.800Z,13.72
2019-04-10T17:13:51.651Z,11.15
2019-04-10T17:16:27.585Z,10.58
2019-04-10T17:19:03.479Z,11.93
2019-04-10T17:21:38.487Z,12.05
2019-04-10T17:24:13.425Z,11.10
2019-04-10T17:26:48.782Z,11.12
2019-04-10T17:29:25.025Z,10.18
2019-04-10T17:32:02.640Z,12.60
2019-04-10T17:34:38.867Z,13.58
2019-04-10T17:37:13.772Z,10.80
2019-04-10T17:39:51.383Z,11.20
2019-04-10T17:42:26.289Z,13.10
2019-04-10T17:45:04.554Z,10.95
2019-04-10T17:47:38.792Z,12.47
2019-04-10T17:50:16.235Z,13.22
2019-04-10T17:52:51.304Z,13.83
2019-04-10T17:55:27.334Z,13.85
2019-04-10T17:58:03.200Z,14.18
2019-04-10T18:00:39.963Z,15.13
2019-04-10T18:03:18.375Z,14.93
2019-04-10T18:05:52.989Z,14.90
2019-04-10T18:08:28.752Z,15.72
2019-04-10T18:11:05.803Z,26.68
2019-04-10T18:13:40.784Z,14.25
2019-04-10T18:16:16.098Z,15.68
2019-04-10T18:18:51.728Z,14.58
2019-04-10T18:21:26.680Z,15.60
2019-04-10T18:24:02.067Z,14.87
2019-04-10T18:26:39.457Z,11.97
2019-04-10T18:29:17.633Z,13.93
2019-04-10T18:34:36.949Z,12.17
2019-04-10T18:37:14.636Z,14.00
2019-04-10T18:39:48.621Z,12.98
2019-04-10T18:42:24.758Z,12.60
2019-04-10T18:44:59.571Z,13.78
2019-04-10T18:47:36.414Z,13.48
2019-04-10T18:50:11.981Z,12.43
2019-04-10T18:52:47.707Z,12.10
2019-04-10T18:55:22.619Z,11.18
2019-04-10T18:57:57.420Z,11.75
2019-04-10T19:00:36.913Z,12.50
2019-04-10T19:03:13.193Z,11.30
2019-04-10T19:05:49.596Z,11.45
2019-04-10T19:08:28.141Z,10.75
2019-04-10T19:11:15.313Z,10.60
2019-04-10T19:13:40.171Z,11.28
2019-04-10T19:16:15.781Z,11.10
2019-04-10T19:18:50.574Z,10.82
2019-04-10T19:21:25.366Z,11.00
2019-04-10T19:23:59.955Z,12.20
2019-04-10T19:26:36.222Z,12.05
2019-04-10T19:29:10.993Z,13.68
2019-04-10T19:31:47.726Z,15.43
2019-04-10T19:34:23.453Z,13.08
2019-04-10T19:36:58.425Z,11.90
2019-04-10T19:39:34.130Z,12.10
2019-04-10T19:42:11.224Z,11.88
2019-04-10T19:44:46.043Z,12.18
2019-04-10T19:47:22.041Z,12.82
2019-04-10T19:49:57.107Z,13.85
2019-04-10T19:52:32.842Z,13.43
2019-04-10T19:55:07.585Z,14.68
2019-04-10T19:57:42.311Z,16.05
2019-04-10T20:00:20.018Z,17.95
2019-04-10T20:02:55.255Z,16.27
2019-04-10T20:05:30.093Z,15.78
2019-04-10T20:08:05.201Z,15.43
2019-04-10T20:10:39.888Z,17.85
2019-04-10T20:13:14.614Z,17.05
2019-04-10T20:15:49.392Z,13.53
2019-04-10T20:18:24.702Z,12.10
2019-04-10T20:20:59.690Z,13.55
2019-04-10T20:23:34.467Z,15.32
2019-04-10T20:26:10.353Z,15.48
2019-04-10T20:28:45.454Z,14.50
2019-04-10T20:31:27.501Z,14.25
2019-04-10T20:34:03.260Z,13.28
2019-04-10T20:36:38.896Z,13.53
2019-04-10T20:39:17.298Z,14.00
2019-04-10T20:41:55.492Z,13.90
2019-04-10T20:44:30.103Z,13.85
2019-04-10T20:47:04.871Z,13.80
2019-04-10T20:49:40.559Z,13.15
2019-04-10T20:52:15.208Z,12.98
2019-04-10T20:54:49.907Z,12.98
2019-04-10T20:57:25.635Z,12.23
2019-04-10T21:00:01.708Z,12.85
2019-04-10T21:02:36.644Z,12.80
2019-04-10T21:05:13.480Z,12.95
2019-04-10T21:07:48.098Z,12.78
2019-04-10T21:10:23.507Z,12.93
2019-04-10T21:12:59.637Z,13.20
2019-04-10T21:15:35.443Z,13.20
2019-04-10T21:18:11.080Z,13.75
2019-04-10T21:20:45.844Z,14.58
2019-04-10T21:23:21.652Z,15.00
2019-04-10T21:25:57.430Z,14.87
2019-04-10T21:28:32.255Z,15.35
2019-04-10T21:31:14.638Z,14.95
2019-04-10T21:34:01.193Z,15.08
2019-04-10T21:36:37.083Z,15.03
2019-04-10T21:39:12.374Z,14.25
2019-04-10T21:41:47.327Z,15.28
2019-04-10T21:44:22.026Z,16.10
2019-04-10T21:46:57.168Z,16.25
2019-04-10T21:49:32.335Z,14.80
2019-04-10T21:52:07.766Z,15.90
2019-04-10T21:54:49.776Z,16.23
2019-04-10T21:57:20.308Z,15.50
2019-04-10T21:59:55.999Z,16.93
2019-04-10T22:02:31.627Z,17.23
2019-04-10T22:05:08.173Z,16.95
2019-04-10T22:07:48.261Z,16.77
2019-04-10T22:10:30.072Z,18.02
2019-04-10T22:13:07.733Z,18.57
2019-04-10T22:15:46.964Z,18.42
2019-04-10T22:18:23.650Z,17.25
2019-04-10T22:21:00.524Z,18.85
2019-04-10T22:23:37.038Z,19.20
2019-04-10T22:26:11.795Z,19.48
2019-04-10T22:28:47.559Z,19.45
2019-04-10T22:31:23.689Z,19.50
2019-04-10T22:34:00.760Z,18.85
2019-04-10T22:36:37.331Z,19.30
2019-04-10T22:39:14.831Z,19.20
2019-04-10T22:41:50.432Z,19.02
2019-04-10T22:44:35.878Z,19.65
2019-04-10T22:47:02.903Z,19.57
2019-04-10T22:49:45.099Z,19.30
2019-04-10T22:52:14.122Z,18.73
2019-04-10T22:54:48.782Z,19.02
2019-04-10T22:57:25.181Z,18.27
2019-04-10T22:59:59.906Z,18.70
2019-04-10T23:02:35.375Z,18.80
2019-04-10T23:05:10.302Z,18.48
2019-04-10T23:07:45.132Z,19.27
2019-04-10T23:10:21.129Z,18.67
2019-04-10T23:13:01.443Z,17.60
2019-04-10T23:15:33.621Z,18.82
2019-04-10T23:18:09.544Z,19.05
2019-04-10T23:20:45.582Z,17.95
2019-04-10T23:23:21.058Z,18.05
2019-04-10T23:25:56.428Z,16.48
2019-04-10T23:28:31.569Z,17.25
2019-04-10T23:31:07.583Z,18.07
2019-04-10T23:33:42.406Z,19.67
2019-04-10T23:36:18.062Z,19.35
2019-04-10T23:38:52.799Z,18.65
2019-04-10T23:41:27.488Z,19.82
2019-04-10T23:44:04.113Z,19.70
2019-04-10T23:46:38.871Z,19.95
2019-04-10T23:49:13.741Z,20.45
2019-04-10T23:51:50.026Z,19.67
2019-04-10T23:54:27.125Z,18.50
2019-04-10T23:57:03.577Z,19.48
2019-04-10T23:59:39.929Z,19.42
